sensor_id;sensor_type;location;lat;lon;timestamp;P1;durP1;ratioP1;P2;durP2;ratioP2
37657;SDS011;23500;53.268;8.308;2023-08-07T00:01:47;5.50;;;5.00;;
37657;SDS011;23500;53.268;8.308;2023-08-07T00:04:13;5.47;;;4.72;;
37657;SDS011;23500;53.268;8.308;2023-08-07T00:06:39;5.32;;;4.82;;
37657;SDS011;23500;53.268;8.308;2023-08-07T00:09:04;5.10;;;4.70;;
37657;SDS011;23500;53.268;8.308;2023-08-07T00:11:30;5.97;;;4.63;;
37657;SDS011;23500;53.268;8.308;2023-08-07T00:13:57;5.25;;;4.75;;
37657;SDS011;23500;53.268;8.308;2023-08-07T00:16:23;5.72;;;5.22;;
37657;SDS011;23500;53.268;8.308;2023-08-07T00:18:49;4.68;;;4.30;;
37657;SDS011;23500;53.268;8.308;2023-08-07T00:21:14;5.28;;;4.78;;
37657;SDS011;23500;53.268;8.308;2023-08-07T00:23:40;5.43;;;4.93;;
37657;SDS011;23500;53.268;8.308;2023-08-07T00:26:06;5.40;;;4.90;;
37657;SDS011;23500;53.268;8.308;2023-08-07T00:28:31;5.70;;;5.10;;
37657;SDS011;23500;53.268;8.308;2023-08-07T00:30:57;5.63;;;5.13;;
37657;SDS011;23500;53.268;8.308;2023-08-07T00:33:22;4.97;;;4.47;;
37657;SDS011;23500;53.268;8.308;2023-08-07T00:35:48;5.43;;;4.93;;
37657;SDS011;23500;53.268;8.308;2023-08-07T00:38:14;4.88;;;4.47;;
37657;SDS011;23500;53.268;8.308;2023-08-07T00:40:39;5.13;;;4.60;;
37657;SDS011;23500;53.268;8.308;2023-08-07T00:43:05;5.68;;;5.05;;
37657;SDS011;23500;53.268;8.308;2023-08-07T00:45:34;5.60;;;5.10;;
37657;SDS011;23500;53.268;8.308;2023-08-07T00:48:06;5.00;;;4.60;;
37657;SDS011;23500;53.268;8.308;2023-08-07T00:50:32;4.85;;;4.38;;
37657;SDS011;23500;53.268;8.308;2023-08-07T00:52:58;4.85;;;4.45;;
37657;SDS011;23500;53.268;8.308;2023-08-07T00:55:25;5.05;;;4.57;;
37657;SDS011;23500;53.268;8.308;2023-08-07T00:57:51;5.45;;;4.95;;
37657;SDS011;23500;53.268;8.308;2023-08-07T01:00:16;5.22;;;4.72;;
37657;SDS011;23500;53.268;8.308;2023-08-07T01:02:43;5.15;;;4.72;;
37657;SDS011;23500;53.268;8.308;2023-08-07T01:05:09;5.18;;;4.50;;
37657;SDS011;23500;53.268;8.308;2023-08-07T01:07:35;4.82;;;4.43;;
37657;SDS011;23500;53.268;8.308;2023-08-07T01:10:00;5.40;;;4.70;;
37657;SDS011;23500;53.268;8.308;2023-08-07T01:12:33;4.80;;;4.40;;
37657;SDS011;23500;53.268;8.308;2023-08-07T01:15:12;4.93;;;4.53;;
37657;SDS011;23500;53.268;8.308;2023-08-07T01:17:41;5.25;;;4.75;;
37657;SDS011;23500;53.268;8.308;2023-08-07T01:20:09;5.22;;;4.72;;
37657;SDS011;23500;53.268;8.308;2023-08-07T01:22:36;4.82;;;4.43;;
37657;SDS011;23500;53.268;8.308;2023-08-07T01:25:02;4.55;;;4.13;;
37657;SDS011;23500;53.268;8.308;2023-08-07T01:35:55;4.65;;;4.25;;
37657;SDS011;23500;53.268;8.308;2023-08-07T01:38:24;4.53;;;4.13;;
37657;SDS011;23500;53.268;8.308;2023-08-07T01:40:51;6.22;;;4.57;;
37657;SDS011;23500;53.268;8.308;2023-08-07T01:43:17;4.97;;;4.45;;
37657;SDS011;23500;53.268;8.308;2023-08-07T01:45:44;5.13;;;4.63;;
37657;SDS011;23500;53.268;8.308;2023-08-07T01:48:10;4.72;;;4.32;;
37657;SDS011;23500;53.268;8.308;2023-08-07T01:50:37;4.65;;;4.25;;
37657;SDS011;23500;53.268;8.308;2023-08-07T01:53:04;4.40;;;4.03;;
37657;SDS011;23500;53.268;8.308;2023-08-07T01:55:30;4.95;;;4.55;;
37657;SDS011;23500;53.268;8.308;2023-08-07T01:57:55;4.80;;;4.40;;
37657;SDS011;23500;53.268;8.308;2023-08-07T02:00:21;4.88;;;4.47;;
37657;SDS011;23500;53.268;8.308;2023-08-07T02:02:47;4.60;;;4.20;;
37657;SDS011;23500;53.268;8.308;2023-08-07T02:05:13;5.05;;;4.65;;
37657;SDS011;23500;53.268;8.308;2023-08-07T02:07:39;4.63;;;4.22;;
37657;SDS011;23500;53.268;8.308;2023-08-07T02:10:05;3.92;;;3.63;;
37657;SDS011;23500;53.268;8.308;2023-08-07T02:12:31;4.60;;;4.20;;
37657;SDS011;23500;53.268;8.308;2023-08-07T02:15:00;4.63;;;4.22;;
37657;SDS011;23500;53.268;8.308;2023-08-07T02:17:28;4.70;;;4.30;;
37657;SDS011;23500;53.268;8.308;2023-08-07T02:20:03;4.50;;;4.10;;
37657;SDS011;23500;53.268;8.308;2023-08-07T02:22:30;4.18;;;3.80;;
37657;SDS011;23500;53.268;8.308;2023-08-07T02:24:56;4.47;;;4.07;;
37657;SDS011;23500;53.268;8.308;2023-08-07T02:27:21;4.72;;;4.32;;
37657;SDS011;23500;53.268;8.308;2023-08-07T02:29:47;4.38;;;3.90;;
37657;SDS011;23500;53.268;8.308;2023-08-07T02:32:12;4.63;;;4.15;;
37657;SDS011;23500;53.268;8.308;2023-08-07T02:34:38;4.72;;;4.32;;
37657;SDS011;23500;53.268;8.308;2023-08-07T02:37:04;4.13;;;3.83;;
37657;SDS011;23500;53.268;8.308;2023-08-07T02:39:29;4.82;;;3.83;;
37657;SDS011;23500;53.268;8.308;2023-08-07T02:41:55;4.85;;;4.35;;
37657;SDS011;23500;53.268;8.308;2023-08-07T02:44:21;4.32;;;3.92;;
37657;SDS011;23500;53.268;8.308;2023-08-07T02:46:46;4.85;;;4.45;;
37657;SDS011;23500;53.268;8.308;2023-08-07T02:49:12;6.38;;;4.32;;
37657;SDS011;23500;53.268;8.308;2023-08-07T02:51:38;4.30;;;3.90;;
37657;SDS011;23500;53.268;8.308;2023-08-07T02:54:03;4.40;;;4.00;;
37657;SDS011;23500;53.268;8.308;2023-08-07T02:56:29;4.30;;;4.00;;
37657;SDS011;23500;53.268;8.308;2023-08-07T02:58:55;4.28;;;3.88;;
37657;SDS011;23500;53.268;8.308;2023-08-07T03:01:23;4.00;;;3.70;;
37657;SDS011;23500;53.268;8.308;2023-08-07T03:03:48;4.72;;;4.28;;
37657;SDS011;23500;53.268;8.308;2023-08-07T03:06:14;4.63;;;4.20;;
37657;SDS011;23500;53.268;8.308;2023-08-07T03:08:40;4.63;;;4.25;;
37657;SDS011;23500;53.268;8.308;2023-08-07T03:11:05;4.32;;;3.92;;
37657;SDS011;23500;53.268;8.308;2023-08-07T03:13:31;4.30;;;4.00;;
37657;SDS011;23500;53.268;8.308;2023-08-07T03:16:00;4.10;;;3.80;;
37657;SDS011;23500;53.268;8.308;2023-08-07T03:18:27;4.50;;;4.10;;
37657;SDS011;23500;53.268;8.308;2023-08-07T03:20:54;4.53;;;4.13;;
37657;SDS011;23500;53.268;8.308;2023-08-07T03:23:20;4.70;;;4.30;;
37657;SDS011;23500;53.268;8.308;2023-08-07T03:25:46;4.05;;;3.75;;
37657;SDS011;23500;53.268;8.308;2023-08-07T03:28:12;4.60;;;4.20;;
37657;SDS011;23500;53.268;8.308;2023-08-07T03:30:37;4.05;;;3.65;;
37657;SDS011;23500;53.268;8.308;2023-08-07T03:33:03;4.10;;;3.80;;
37657;SDS011;23500;53.268;8.308;2023-08-07T03:35:29;4.10;;;3.80;;
37657;SDS011;23500;53.268;8.308;2023-08-07T03:37:55;4.45;;;4.10;;
37657;SDS011;23500;53.268;8.308;2023-08-07T03:40:20;3.70;;;3.40;;
37657;SDS011;23500;53.268;8.308;2023-08-07T03:42:46;3.72;;;3.42;;
37657;SDS011;23500;53.268;8.308;2023-08-07T03:45:12;3.92;;;3.63;;
37657;SDS011;23500;53.268;8.308;2023-08-07T03:47:38;4.10;;;3.70;;
37657;SDS011;23500;53.268;8.308;2023-08-07T03:50:04;4.00;;;3.67;;
37657;SDS011;23500;53.268;8.308;2023-08-07T03:52:30;4.28;;;3.80;;
37657;SDS011;23500;53.268;8.308;2023-08-07T03:54:56;4.25;;;3.88;;
37657;SDS011;23500;53.268;8.308;2023-08-07T03:57:21;3.85;;;3.55;;
37657;SDS011;23500;53.268;8.308;2023-08-07T03:59:47;4.28;;;3.90;;
37657;SDS011;23500;53.268;8.308;2023-08-07T04:02:13;4.15;;;3.78;;
37657;SDS011;23500;53.268;8.308;2023-08-07T04:04:39;3.92;;;3.55;;
37657;SDS011;23500;53.268;8.308;2023-08-07T04:07:04;3.65;;;3.35;;
37657;SDS011;23500;53.268;8.308;2023-08-07T04:09:31;4.18;;;3.88;;
37657;SDS011;23500;53.268;8.308;2023-08-07T04:11:56;3.90;;;3.50;;
37657;SDS011;23500;53.268;8.308;2023-08-07T04:14:22;4.00;;;3.60;;
37657;SDS011;23500;53.268;8.308;2023-08-07T04:16:48;3.90;;;3.60;;
37657;SDS011;23500;53.268;8.308;2023-08-07T04:19:14;3.65;;;3.35;;
37657;SDS011;23500;53.268;8.308;2023-08-07T04:21:40;3.83;;;3.53;;
37657;SDS011;23500;53.268;8.308;2023-08-07T04:24:05;3.72;;;3.42;;
37657;SDS011;23500;53.268;8.308;2023-08-07T04:26:35;4.82;;;4.05;;
37657;SDS011;23500;53.268;8.308;2023-08-07T04:29:02;4.43;;;3.50;;
37657;SDS011;23500;53.268;8.308;2023-08-07T04:31:28;3.70;;;3.38;;
37657;SDS011;23500;53.268;8.308;2023-08-07T04:33:56;3.78;;;3.42;;
37657;SDS011;23500;53.268;8.308;2023-08-07T04:36:22;4.45;;;3.67;;
37657;SDS011;23500;53.268;8.308;2023-08-07T04:38:48;3.75;;;3.45;;
37657;SDS011;23500;53.268;8.308;2023-08-07T04:41:14;4.60;;;3.45;;
37657;SDS011;23500;53.268;8.308;2023-08-07T04:43:40;3.92;;;3.60;;
37657;SDS011;23500;53.268;8.308;2023-08-07T04:46:07;3.70;;;3.35;;
37657;SDS011;23500;53.268;8.308;2023-08-07T04:48:34;3.80;;;3.50;;
37657;SDS011;23500;53.268;8.308;2023-08-07T04:51:00;3.70;;;3.40;;
37657;SDS011;23500;53.268;8.308;2023-08-07T04:53:26;4.00;;;3.70;;
37657;SDS011;23500;53.268;8.308;2023-08-07T04:55:52;3.50;;;3.20;;
37657;SDS011;23500;53.268;8.308;2023-08-07T04:58:18;3.58;;;2.95;;
37657;SDS011;23500;53.268;8.308;2023-08-07T05:00:44;3.47;;;3.17;;
37657;SDS011;23500;53.268;8.308;2023-08-07T05:03:09;3.55;;;3.25;;
37657;SDS011;23500;53.268;8.308;2023-08-07T05:05:35;3.90;;;3.50;;
37657;SDS011;23500;53.268;8.308;2023-08-07T05:08:00;3.35;;;3.05;;
37657;SDS011;23500;53.268;8.308;2023-08-07T05:10:26;3.45;;;3.20;;
37657;SDS011;23500;53.268;8.308;2023-08-07T05:12:52;3.45;;;3.15;;
37657;SDS011;23500;53.268;8.308;2023-08-07T05:15:21;3.72;;;3.42;;
37657;SDS011;23500;53.268;8.308;2023-08-07T05:17:50;3.97;;;3.58;;
37657;SDS011;23500;53.268;8.308;2023-08-07T05:20:17;3.45;;;3.15;;
37657;SDS011;23500;53.268;8.308;2023-08-07T05:22:43;3.60;;;3.30;;
37657;SDS011;23500;53.268;8.308;2023-08-07T05:25:09;3.45;;;3.15;;
37657;SDS011;23500;53.268;8.308;2023-08-07T05:27:36;3.28;;;2.97;;
37657;SDS011;23500;53.268;8.308;2023-08-07T05:30:02;3.22;;;2.88;;
37657;SDS011;23500;53.268;8.308;2023-08-07T05:32:29;3.42;;;3.13;;
37657;SDS011;23500;53.268;8.308;2023-08-07T05:34:55;4.57;;;3.55;;
37657;SDS011;23500;53.268;8.308;2023-08-07T05:37:20;5.43;;;3.47;;
37657;SDS011;23500;53.268;8.308;2023-08-07T05:39:46;6.30;;;3.47;;
37657;SDS011;23500;53.268;8.308;2023-08-07T05:42:11;3.80;;;3.30;;
37657;SDS011;23500;53.268;8.308;2023-08-07T05:44:37;4.45;;;3.40;;
37657;SDS011;23500;53.268;8.308;2023-08-07T05:47:03;3.50;;;3.20;;
37657;SDS011;23500;53.268;8.308;2023-08-07T05:49:29;5.07;;;3.20;;
37657;SDS011;23500;53.268;8.308;2023-08-07T05:51:55;4.32;;;3.00;;
37657;SDS011;23500;53.268;8.308;2023-08-07T05:54:20;7.07;;;3.40;;
37657;SDS011;23500;53.268;8.308;2023-08-07T05:56:46;5.68;;;3.47;;
37657;SDS011;23500;53.268;8.308;2023-08-07T05:59:12;7.97;;;3.85;;
37657;SDS011;23500;53.268;8.308;2023-08-07T06:01:38;5.07;;;3.45;;
37657;SDS011;23500;53.268;8.308;2023-08-07T06:04:03;5.45;;;3.50;;
37657;SDS011;23500;53.268;8.308;2023-08-07T06:06:29;7.93;;;3.58;;
37657;SDS011;23500;53.268;8.308;2023-08-07T06:08:55;6.85;;;3.63;;
37657;SDS011;23500;53.268;8.308;2023-08-07T06:11:21;5.65;;;3.65;;
37657;SDS011;23500;53.268;8.308;2023-08-07T06:13:46;6.00;;;3.42;;
37657;SDS011;23500;53.268;8.308;2023-08-07T06:16:13;5.75;;;3.55;;
37657;SDS011;23500;53.268;8.308;2023-08-07T06:18:38;5.63;;;3.35;;
37657;SDS011;23500;53.268;8.308;2023-08-07T06:21:04;6.22;;;3.42;;
37657;SDS011;23500;53.268;8.308;2023-08-07T06:23:32;4.85;;;3.50;;
37657;SDS011;23500;53.268;8.308;2023-08-07T06:25:58;7.00;;;3.40;;
37657;SDS011;23500;53.268;8.308;2023-08-07T06:28:24;4.93;;;3.50;;
37657;SDS011;23500;53.268;8.308;2023-08-07T06:30:49;4.97;;;3.30;;
37657;SDS011;23500;53.268;8.308;2023-08-07T06:33:15;5.20;;;3.42;;
37657;SDS011;23500;53.268;8.308;2023-08-07T06:35:41;5.45;;;3.22;;
37657;SDS011;23500;53.268;8.308;2023-08-07T06:38:07;4.43;;;3.25;;
37657;SDS011;23500;53.268;8.308;2023-08-07T06:40:37;5.97;;;3.35;;
37657;SDS011;23500;53.268;8.308;2023-08-07T06:43:02;5.03;;;3.63;;
37657;SDS011;23500;53.268;8.308;2023-08-07T06:45:28;4.90;;;3.28;;
37657;SDS011;23500;53.268;8.308;2023-08-07T06:47:54;6.15;;;3.38;;
37657;SDS011;23500;53.268;8.308;2023-08-07T06:50:19;5.22;;;3.30;;
37657;SDS011;23500;53.268;8.308;2023-08-07T06:52:45;5.28;;;3.47;;
37657;SDS011;23500;53.268;8.308;2023-08-07T06:55:11;5.57;;;3.50;;
37657;SDS011;23500;53.268;8.308;2023-08-07T06:57:36;5.55;;;3.55;;
37657;SDS011;23500;53.268;8.308;2023-08-07T07:00:02;7.30;;;3.30;;
37657;SDS011;23500;53.268;8.308;2023-08-07T07:02:29;5.18;;;3.40;;
37657;SDS011;23500;53.268;8.308;2023-08-07T07:04:54;5.13;;;3.80;;
37657;SDS011;23500;53.268;8.308;2023-08-07T07:07:20;5.00;;;3.25;;
37657;SDS011;23500;53.268;8.308;2023-08-07T07:09:46;4.82;;;3.38;;
37657;SDS011;23500;53.268;8.308;2023-08-07T07:12:12;5.85;;;3.22;;
37657;SDS011;23500;53.268;8.308;2023-08-07T07:14:37;4.28;;;2.90;;
37657;SDS011;23500;53.268;8.308;2023-08-07T07:17:03;5.63;;;3.47;;
37657;SDS011;23500;53.268;8.308;2023-08-07T07:19:29;4.28;;;2.88;;
37657;SDS011;23500;53.268;8.308;2023-08-07T07:21:54;3.78;;;2.95;;
37657;SDS011;23500;53.268;8.308;2023-08-07T07:24:20;3.78;;;2.92;;
37657;SDS011;23500;53.268;8.308;2023-08-07T07:26:46;4.10;;;3.30;;
37657;SDS011;23500;53.268;8.308;2023-08-07T07:29:11;4.45;;;3.20;;
37657;SDS011;23500;53.268;8.308;2023-08-07T07:31:37;5.03;;;3.03;;
37657;SDS011;23500;53.268;8.308;2023-08-07T07:34:03;4.38;;;3.22;;
37657;SDS011;23500;53.268;8.308;2023-08-07T07:36:28;4.80;;;3.42;;
37657;SDS011;23500;53.268;8.308;2023-08-07T07:38:54;4.60;;;2.90;;
37657;SDS011;23500;53.268;8.308;2023-08-07T07:41:22;3.78;;;3.00;;
37657;SDS011;23500;53.268;8.308;2023-08-07T07:43:49;3.45;;;3.08;;
37657;SDS011;23500;53.268;8.308;2023-08-07T07:46:14;4.82;;;3.00;;
37657;SDS011;23500;53.268;8.308;2023-08-07T07:48:40;4.47;;;3.08;;
37657;SDS011;23500;53.268;8.308;2023-08-07T07:51:09;4.22;;;3.10;;
37657;SDS011;23500;53.268;8.308;2023-08-07T07:53:34;4.60;;;2.88;;
37657;SDS011;23500;53.268;8.308;2023-08-07T07:56:00;4.10;;;2.70;;
37657;SDS011;23500;53.268;8.308;2023-08-07T07:58:26;3.10;;;2.70;;
37657;SDS011;23500;53.268;8.308;2023-08-07T08:00:51;3.80;;;3.00;;
37657;SDS011;23500;53.268;8.308;2023-08-07T08:03:19;3.35;;;2.67;;
37657;SDS011;23500;53.268;8.308;2023-08-07T08:05:48;3.28;;;2.78;;
37657;SDS011;23500;53.268;8.308;2023-08-07T08:08:17;4.57;;;2.95;;
37657;SDS011;23500;53.268;8.308;2023-08-07T08:10:43;5.72;;;2.90;;
37657;SDS011;23500;53.268;8.308;2023-08-07T08:13:12;3.67;;;2.90;;
37657;SDS011;23500;53.268;8.308;2023-08-07T08:15:37;4.40;;;3.00;;
37657;SDS011;23500;53.268;8.308;2023-08-07T08:18:03;3.83;;;2.92;;
37657;SDS011;23500;53.268;8.308;2023-08-07T08:20:29;4.55;;;3.00;;
37657;SDS011;23500;53.268;8.308;2023-08-07T08:22:56;3.75;;;2.67;;
37657;SDS011;23500;53.268;8.308;2023-08-07T08:25:22;4.10;;;2.85;;
37657;SDS011;23500;53.268;8.308;2023-08-07T08:27:47;3.90;;;2.90;;
37657;SDS011;23500;53.268;8.308;2023-08-07T08:30:14;3.67;;;3.05;;
37657;SDS011;23500;53.268;8.308;2023-08-07T08:32:42;4.22;;;2.78;;
37657;SDS011;23500;53.268;8.308;2023-08-07T08:35:08;3.80;;;2.70;;
37657;SDS011;23500;53.268;8.308;2023-08-07T08:37:34;3.50;;;2.72;;
37657;SDS011;23500;53.268;8.308;2023-08-07T08:39:59;3.33;;;2.88;;
37657;SDS011;23500;53.268;8.308;2023-08-07T08:42:25;3.35;;;3.03;;
37657;SDS011;23500;53.268;8.308;2023-08-07T08:44:55;3.25;;;2.80;;
37657;SDS011;23500;53.268;8.308;2023-08-07T08:47:21;4.63;;;3.10;;
37657;SDS011;23500;53.268;8.308;2023-08-07T08:49:54;3.45;;;2.80;;
37657;SDS011;23500;53.268;8.308;2023-08-07T08:52:26;2.85;;;2.53;;
37657;SDS011;23500;53.268;8.308;2023-08-07T08:54:53;3.85;;;2.90;;
37657;SDS011;23500;53.268;8.308;2023-08-07T08:57:22;3.92;;;2.67;;
37657;SDS011;23500;53.268;8.308;2023-08-07T08:59:49;6.18;;;2.92;;
37657;SDS011;23500;53.268;8.308;2023-08-07T09:02:15;4.03;;;2.83;;
37657;SDS011;23500;53.268;8.308;2023-08-07T09:04:43;3.00;;;2.65;;
37657;SDS011;23500;53.268;8.308;2023-08-07T09:07:09;3.83;;;2.92;;
37657;SDS011;23500;53.268;8.308;2023-08-07T09:09:38;3.70;;;2.90;;
37657;SDS011;23500;53.268;8.308;2023-08-07T09:12:06;3.03;;;2.72;;
37657;SDS011;23500;53.268;8.308;2023-08-07T09:14:33;3.75;;;2.65;;
37657;SDS011;23500;53.268;8.308;2023-08-07T09:17:02;3.35;;;2.75;;
37657;SDS011;23500;53.268;8.308;2023-08-07T09:19:29;3.10;;;2.50;;
37657;SDS011;23500;53.268;8.308;2023-08-07T09:21:55;4.00;;;2.90;;
37657;SDS011;23500;53.268;8.308;2023-08-07T09:24:21;3.55;;;3.05;;
37657;SDS011;23500;53.268;8.308;2023-08-07T09:26:47;4.45;;;2.88;;
37657;SDS011;23500;53.268;8.308;2023-08-07T09:29:15;3.22;;;2.75;;
37657;SDS011;23500;53.268;8.308;2023-08-07T09:31:44;3.33;;;2.67;;
37657;SDS011;23500;53.268;8.308;2023-08-07T09:34:10;3.35;;;2.60;;
37657;SDS011;23500;53.268;8.308;2023-08-07T09:36:38;3.35;;;2.53;;
37657;SDS011;23500;53.268;8.308;2023-08-07T09:39:04;3.03;;;2.72;;
37657;SDS011;23500;53.268;8.308;2023-08-07T09:41:30;3.80;;;3.08;;
37657;SDS011;23500;53.268;8.308;2023-08-07T09:43:56;3.08;;;2.70;;
37657;SDS011;23500;53.268;8.308;2023-08-07T09:46:25;4.13;;;2.50;;
37657;SDS011;23500;53.268;8.308;2023-08-07T09:48:52;3.17;;;2.70;;
37657;SDS011;23500;53.268;8.308;2023-08-07T09:51:22;2.83;;;2.53;;
37657;SDS011;23500;53.268;8.308;2023-08-07T09:53:47;3.50;;;2.80;;
37657;SDS011;23500;53.268;8.308;2023-08-07T09:56:14;4.43;;;3.00;;
37657;SDS011;23500;53.268;8.308;2023-08-07T09:58:43;2.80;;;2.55;;
37657;SDS011;23500;53.268;8.308;2023-08-07T10:01:12;3.92;;;3.10;;
37657;SDS011;23500;53.268;8.308;2023-08-07T10:03:40;3.30;;;2.60;;
37657;SDS011;23500;53.268;8.308;2023-08-07T10:06:06;2.80;;;2.42;;
37657;SDS011;23500;53.268;8.308;2023-08-07T10:08:33;3.22;;;2.50;;
37657;SDS011;23500;53.268;8.308;2023-08-07T10:11:00;2.92;;;2.60;;
37657;SDS011;23500;53.268;8.308;2023-08-07T10:13:27;3.80;;;2.58;;
37657;SDS011;23500;53.268;8.308;2023-08-07T10:15:54;3.00;;;2.60;;
37657;SDS011;23500;53.268;8.308;2023-08-07T10:18:20;3.53;;;2.60;;
37657;SDS011;23500;53.268;8.308;2023-08-07T10:20:46;3.20;;;2.45;;
37657;SDS011;23500;53.268;8.308;2023-08-07T10:23:13;3.65;;;2.38;;
37657;SDS011;23500;53.268;8.308;2023-08-07T10:25:42;2.78;;;2.53;;
37657;SDS011;23500;53.268;8.308;2023-08-07T10:28:12;2.85;;;2.55;;
37657;SDS011;23500;53.268;8.308;2023-08-07T10:30:41;4.50;;;2.75;;
37657;SDS011;23500;53.268;8.308;2023-08-07T10:33:09;3.63;;;2.65;;
37657;SDS011;23500;53.268;8.308;2023-08-07T10:35:37;3.30;;;2.67;;
37657;SDS011;23500;53.268;8.308;2023-08-07T10:38:09;5.13;;;3.08;;
37657;SDS011;23500;53.268;8.308;2023-08-07T10:43:45;3.80;;;2.60;;
37657;SDS011;23500;53.268;8.308;2023-08-07T10:46:14;3.13;;;2.63;;
37657;SDS011;23500;53.268;8.308;2023-08-07T10:48:47;2.70;;;2.50;;
37657;SDS011;23500;53.268;8.308;2023-08-07T10:51:18;3.92;;;2.65;;
37657;SDS011;23500;53.268;8.308;2023-08-07T10:53:46;3.83;;;2.72;;
37657;SDS011;23500;53.268;8.308;2023-08-07T10:56:16;3.50;;;2.78;;
37657;SDS011;23500;53.268;8.308;2023-08-07T10:58:47;3.97;;;2.65;;
37657;SDS011;23500;53.268;8.308;2023-08-07T11:03:56;5.05;;;2.60;;
37657;SDS011;23500;53.268;8.308;2023-08-07T11:06:24;4.70;;;2.90;;
37657;SDS011;23500;53.268;8.308;2023-08-07T11:08:57;4.45;;;3.15;;
37657;SDS011;23500;53.268;8.308;2023-08-07T11:11:23;3.53;;;2.80;;
37657;SDS011;23500;53.268;8.308;2023-08-07T11:13:50;3.70;;;2.75;;
37657;SDS011;23500;53.268;8.308;2023-08-07T11:16:16;3.28;;;2.80;;
37657;SDS011;23500;53.268;8.308;2023-08-07T11:18:42;4.05;;;2.92;;
37657;SDS011;23500;53.268;8.308;2023-08-07T11:21:08;4.18;;;2.80;;
37657;SDS011;23500;53.268;8.308;2023-08-07T11:23:36;3.65;;;2.67;;
37657;SDS011;23500;53.268;8.308;2023-08-07T11:26:04;4.30;;;2.85;;
37657;SDS011;23500;53.268;8.308;2023-08-07T11:28:36;3.03;;;2.67;;
37657;SDS011;23500;53.268;8.308;2023-08-07T11:31:02;3.75;;;2.72;;
37657;SDS011;23500;53.268;8.308;2023-08-07T11:33:28;4.97;;;2.95;;
37657;SDS011;23500;53.268;8.308;2023-08-07T11:35:54;3.47;;;2.42;;
37657;SDS011;23500;53.268;8.308;2023-08-07T11:38:33;3.45;;;2.65;;
37657;SDS011;23500;53.268;8.308;2023-08-07T11:41:03;5.88;;;2.50;;
37657;SDS011;23500;53.268;8.308;2023-08-07T11:43:31;3.35;;;2.78;;
37657;SDS011;23500;53.268;8.308;2023-08-07T11:45:58;3.60;;;2.67;;
37657;SDS011;23500;53.268;8.308;2023-08-07T11:48:32;3.60;;;2.72;;
37657;SDS011;23500;53.268;8.308;2023-08-07T11:50:59;2.50;;;2.30;;
37657;SDS011;23500;53.268;8.308;2023-08-07T11:53:26;2.70;;;2.47;;
37657;SDS011;23500;53.268;8.308;2023-08-07T11:55:56;4.50;;;2.53;;
37657;SDS011;23500;53.268;8.308;2023-08-07T11:58:24;3.65;;;2.50;;
37657;SDS011;23500;53.268;8.308;2023-08-07T12:00:52;4.85;;;3.17;;
37657;SDS011;23500;53.268;8.308;2023-08-07T12:03:28;3.28;;;2.45;;
37657;SDS011;23500;53.268;8.308;2023-08-07T12:05:56;4.05;;;2.47;;
37657;SDS011;23500;53.268;8.308;2023-08-07T12:08:23;3.38;;;2.67;;
37657;SDS011;23500;53.268;8.308;2023-08-07T12:10:55;4.25;;;2.70;;
37657;SDS011;23500;53.268;8.308;2023-08-07T12:13:24;3.50;;;2.80;;
37657;SDS011;23500;53.268;8.308;2023-08-07T12:15:53;2.80;;;2.47;;
37657;SDS011;23500;53.268;8.308;2023-08-07T12:18:19;4.10;;;2.70;;
37657;SDS011;23500;53.268;8.308;2023-08-07T12:20:46;3.72;;;2.75;;
37657;SDS011;23500;53.268;8.308;2023-08-07T12:23:15;3.50;;;2.38;;
37657;SDS011;23500;53.268;8.308;2023-08-07T12:25:44;3.20;;;2.72;;
37657;SDS011;23500;53.268;8.308;2023-08-07T12:28:10;3.45;;;2.63;;
37657;SDS011;23500;53.268;8.308;2023-08-07T12:30:36;3.90;;;2.72;;
37657;SDS011;23500;53.268;8.308;2023-08-07T12:33:03;4.35;;;2.78;;
37657;SDS011;23500;53.268;8.308;2023-08-07T12:35:32;3.63;;;2.83;;
37657;SDS011;23500;53.268;8.308;2023-08-07T12:37:59;4.40;;;2.80;;
37657;SDS011;23500;53.268;8.308;2023-08-07T12:40:26;4.60;;;2.78;;
37657;SDS011;23500;53.268;8.308;2023-08-07T12:42:52;3.40;;;2.70;;
37657;SDS011;23500;53.268;8.308;2023-08-07T12:45:18;4.50;;;2.75;;
37657;SDS011;23500;53.268;8.308;2023-08-07T12:47:44;5.00;;;2.75;;
37657;SDS011;23500;53.268;8.308;2023-08-07T12:50:10;5.18;;;2.97;;
37657;SDS011;23500;53.268;8.308;2023-08-07T12:52:36;2.92;;;2.63;;
37657;SDS011;23500;53.268;8.308;2023-08-07T12:55:02;4.43;;;3.00;;
37657;SDS011;23500;53.268;8.308;2023-08-07T12:57:29;3.53;;;2.42;;
37657;SDS011;23500;53.268;8.308;2023-08-07T12:59:54;4.60;;;2.80;;
37657;SDS011;23500;53.268;8.308;2023-08-07T13:02:20;5.15;;;2.97;;
37657;SDS011;23500;53.268;8.308;2023-08-07T13:04:46;5.07;;;2.55;;
37657;SDS011;23500;53.268;8.308;2023-08-07T13:07:14;3.85;;;2.70;;
37657;SDS011;23500;53.268;8.308;2023-08-07T13:09:40;3.67;;;2.70;;
37657;SDS011;23500;53.268;8.308;2023-08-07T13:12:06;5.38;;;2.78;;
37657;SDS011;23500;53.268;8.308;2023-08-07T13:14:32;3.30;;;2.65;;
37657;SDS011;23500;53.268;8.308;2023-08-07T13:16:57;4.95;;;2.70;;
37657;SDS011;23500;53.268;8.308;2023-08-07T13:19:23;4.13;;;2.58;;
37657;SDS011;23500;53.268;8.308;2023-08-07T13:21:49;2.72;;;2.25;;
37657;SDS011;23500;53.268;8.308;2023-08-07T13:24:14;2.83;;;2.40;;
37657;SDS011;23500;53.268;8.308;2023-08-07T13:26:40;4.20;;;2.80;;
37657;SDS011;23500;53.268;8.308;2023-08-07T13:29:12;4.85;;;2.90;;
37657;SDS011;23500;53.268;8.308;2023-08-07T13:31:39;5.00;;;2.92;;
37657;SDS011;23500;53.268;8.308;2023-08-07T13:34:10;3.30;;;2.70;;
37657;SDS011;23500;53.268;8.308;2023-08-07T13:36:36;3.15;;;2.40;;
37657;SDS011;23500;53.268;8.308;2023-08-07T13:39:03;3.60;;;2.70;;
37657;SDS011;23500;53.268;8.308;2023-08-07T13:41:29;3.35;;;2.67;;
37657;SDS011;23500;53.268;8.308;2023-08-07T13:43:55;4.63;;;2.42;;
37657;SDS011;23500;53.268;8.308;2023-08-07T13:46:21;3.97;;;2.58;;
37657;SDS011;23500;53.268;8.308;2023-08-07T13:48:49;2.90;;;2.60;;
37657;SDS011;23500;53.268;8.308;2023-08-07T13:51:15;3.10;;;2.38;;
37657;SDS011;23500;53.268;8.308;2023-08-07T13:53:41;3.33;;;2.45;;
37657;SDS011;23500;53.268;8.308;2023-08-07T13:56:07;4.03;;;2.63;;
37657;SDS011;23500;53.268;8.308;2023-08-07T13:58:36;5.15;;;2.70;;
37657;SDS011;23500;53.268;8.308;2023-08-07T14:01:01;3.72;;;2.90;;
37657;SDS011;23500;53.268;8.308;2023-08-07T14:03:27;4.47;;;2.53;;
37657;SDS011;23500;53.268;8.308;2023-08-07T14:05:53;3.50;;;2.63;;
37657;SDS011;23500;53.268;8.308;2023-08-07T14:08:18;3.08;;;2.63;;
37657;SDS011;23500;53.268;8.308;2023-08-07T14:10:44;3.47;;;2.70;;
37657;SDS011;23500;53.268;8.308;2023-08-07T14:13:10;5.20;;;3.03;;
37657;SDS011;23500;53.268;8.308;2023-08-07T14:15:36;4.38;;;3.00;;
37657;SDS011;23500;53.268;8.308;2023-08-07T14:18:02;3.88;;;2.70;;
37657;SDS011;23500;53.268;8.308;2023-08-07T14:20:28;4.32;;;3.13;;
37657;SDS011;23500;53.268;8.308;2023-08-07T14:22:54;3.63;;;2.85;;
37657;SDS011;23500;53.268;8.308;2023-08-07T14:25:19;5.50;;;2.95;;
37657;SDS011;23500;53.268;8.308;2023-08-07T14:27:48;6.00;;;3.20;;
37657;SDS011;23500;53.268;8.308;2023-08-07T14:30:14;6.03;;;3.30;;
37657;SDS011;23500;53.268;8.308;2023-08-07T14:32:40;6.78;;;3.40;;
37657;SDS011;23500;53.268;8.308;2023-08-07T14:35:07;7.97;;;3.25;;
37657;SDS011;23500;53.268;8.308;2023-08-07T14:37:33;7.47;;;3.55;;
37657;SDS011;23500;53.268;8.308;2023-08-07T14:39:59;5.57;;;3.50;;
37657;SDS011;23500;53.268;8.308;2023-08-07T14:42:25;5.55;;;3.03;;
37657;SDS011;23500;53.268;8.308;2023-08-07T14:44:51;6.45;;;3.10;;
37657;SDS011;23500;53.268;8.308;2023-08-07T14:47:17;6.88;;;3.15;;
37657;SDS011;23500;53.268;8.308;2023-08-07T14:49:43;4.57;;;3.00;;
37657;SDS011;23500;53.268;8.308;2023-08-07T14:52:09;4.00;;;2.97;;
37657;SDS011;23500;53.268;8.308;2023-08-07T14:54:35;4.63;;;2.90;;
37657;SDS011;23500;53.268;8.308;2023-08-07T14:57:01;5.43;;;3.58;;
37657;SDS011;23500;53.268;8.308;2023-08-07T14:59:26;4.47;;;3.20;;